sensor_id;sensor_type;location;lat;lon;timestamp;pressure;altitude;pressure_sealevel;temperature;humidity
10712;BME280;5407;51.234;6.804;2022-09-01T00:01:34;101505.72;;;26.54;34.18
10712;BME280;5407;51.234;6.804;2022-09-01T00:04:04;101505.03;;;26.50;34.22
10712;BME280;5407;51.234;6.804;2022-09-01T00:06:33;101505.03;;;26.50;34.34
10712;BME280;5407;51.234;6.804;2022-09-01T00:09:03;101507.78;;;26.50;34.54
10712;BME280;5407;51.234;6.804;2022-09-01T00:11:33;101505.81;;;26.50;34.56
10712;BME280;5407;51.234;6.804;2022-09-01T00:14:00;101510.56;;;26.50;34.42
10712;BME280;5407;51.234;6.804;2022-09-01T00:16:28;101512.22;;;26.47;34.62
10712;BME280;5407;51.234;6.804;2022-09-01T00:18:56;101509.84;;;26.46;34.63
10712;BME280;5407;51.234;6.804;2022-09-01T00:21:27;101522.84;;;26.49;34.39
10712;BME280;5407;51.234;6.804;2022-09-01T00:23:54;101516.97;;;26.47;34.61
10712;BME280;5407;51.234;6.804;2022-09-01T00:26:21;101521.28;;;26.48;34.64
10712;BME280;5407;51.234;6.804;2022-09-01T00:28:50;101524.06;;;26.48;34.51
10712;BME280;5407;51.234;6.804;2022-09-01T00:31:17;101520.91;;;26.46;34.63
10712;BME280;5407;51.234;6.804;2022-09-01T00:33:45;101522.13;;;26.45;34.76
10712;BME280;5407;51.234;6.804;2022-09-01T00:36:13;101516.97;;;26.47;34.43
10712;BME280;5407;51.234;6.804;2022-09-01T00:38:40;101515.38;;;26.46;34.67
10712;BME280;5407;51.234;6.804;2022-09-01T00:41:07;101508.28;;;26.45;34.62
10712;BME280;5407;51.234;6.804;2022-09-01T00:43:38;101508.69;;;26.43;34.84
10712;BME280;5407;51.234;6.804;2022-09-01T00:46:16;101506.72;;;26.44;34.55
10712;BME280;5407;51.234;6.804;2022-09-01T00:48:43;101506.72;;;26.44;34.67
10712;BME280;5407;51.234;6.804;2022-09-01T00:51:11;101502.75;;;26.45;34.71
10712;BME280;5407;51.234;6.804;2022-09-01T00:53:40;101506.88;;;26.37;34.76
10712;BME280;5407;51.234;6.804;2022-09-01T00:56:08;101506.94;;;26.33;34.81
10712;BME280;5407;51.234;6.804;2022-09-01T00:58:36;101502.63;;;26.32;35.01
10712;BME280;5407;51.234;6.804;2022-09-01T01:01:04;101508.94;;;26.33;34.99
10712;BME280;5407;51.234;6.804;2022-09-01T01:03:33;101506.19;;;26.33;34.90
10712;BME280;5407;51.234;6.804;2022-09-01T01:06:03;101504.53;;;26.35;34.79
10712;BME280;5407;51.234;6.804;2022-09-01T01:08:34;101502.22;;;26.34;34.82
10712;BME280;5407;51.234;6.804;2022-09-01T01:11:05;101497.53;;;26.31;34.93
10712;BME280;5407;51.234;6.804;2022-09-01T01:13:46;101489.66;;;26.29;34.98
10712;BME280;5407;51.234;6.804;2022-09-01T01:16:16;101495.53;;;26.31;35.00
10712;BME280;5407;51.234;6.804;2022-09-01T01:18:45;101497.53;;;26.31;35.16
10712;BME280;5407;51.234;6.804;2022-09-01T01:21:17;101499.25;;;26.25;35.25
10712;BME280;5407;51.234;6.804;2022-09-01T01:24:08;101503.59;;;26.06;35.59
10712;BME280;5407;51.234;6.804;2022-09-01T01:26:38;101502.09;;;26.02;35.52
10712;BME280;5407;51.234;6.804;2022-09-01T01:29:05;101503.72;;;25.99;35.61
10712;BME280;5407;51.234;6.804;2022-09-01T01:31:35;101512.44;;;25.98;35.79
10712;BME280;5407;51.234;6.804;2022-09-01T01:34:03;101508.63;;;25.92;35.83
10712;BME280;5407;51.234;6.804;2022-09-01T01:36:35;101512.03;;;25.76;36.12
10712;BME280;5407;51.234;6.804;2022-09-01T01:39:07;101516.06;;;25.72;36.10
10712;BME280;5407;51.234;6.804;2022-09-01T01:41:38;101517.00;;;25.65;36.22
10712;BME280;5407;51.234;6.804;2022-09-01T01:44:12;101521.59;;;25.72;36.37
10712;BME280;5407;51.234;6.804;2022-09-01T01:46:41;101520.53;;;25.66;36.38
10712;BME280;5407;51.234;6.804;2022-09-01T01:49:09;101525.00;;;25.60;36.35
10712;BME280;5407;51.234;6.804;2022-09-01T01:51:39;101523.16;;;25.73;36.27
10712;BME280;5407;51.234;6.804;2022-09-01T01:54:06;101518.28;;;25.80;36.03
10712;BME280;5407;51.234;6.804;2022-09-01T01:56:34;101524.19;;;25.82;35.95
10712;BME280;5407;51.234;6.804;2022-09-01T01:59:06;101520.66;;;25.82;35.98
10712;BME280;5407;51.234;6.804;2022-09-01T02:01:38;101521.06;;;25.80;36.06
10712;BME280;5407;51.234;6.804;2022-09-01T02:04:08;101520.69;;;25.78;36.24
10712;BME280;5407;51.234;6.804;2022-09-01T02:06:37;101516.81;;;25.76;36.07
10712;BME280;5407;51.234;6.804;2022-09-01T02:09:07;101516.81;;;25.76;36.14
10712;BME280;5407;51.234;6.804;2022-09-01T02:11:34;101517.63;;;25.73;36.22
10712;BME280;5407;51.234;6.804;2022-09-01T02:14:06;101517.63;;;25.73;36.08
10712;BME280;5407;51.234;6.804;2022-09-01T02:16:35;101514.50;;;25.71;36.11
10712;BME280;5407;51.234;6.804;2022-09-01T02:19:04;101521.25;;;25.70;36.22
10712;BME280;5407;51.234;6.804;2022-09-01T02:21:32;101524.38;;;25.72;36.45
10712;BME280;5407;51.234;6.804;2022-09-01T02:24:01;101512.09;;;25.73;36.34
10712;BME280;5407;51.234;6.804;2022-09-01T02:26:32;101511.28;;;25.76;36.30
10712;BME280;5407;51.234;6.804;2022-09-01T02:29:02;101512.91;;;25.73;36.23
10712;BME280;5407;51.234;6.804;2022-09-01T02:31:33;101519.97;;;25.74;36.08
10712;BME280;5407;51.234;6.804;2022-09-01T02:34:04;101512.09;;;25.73;36.05
10712;BME280;5407;51.234;6.804;2022-09-01T02:36:36;101502.75;;;25.67;36.18
10712;BME280;5407;51.234;6.804;2022-09-01T02:39:13;101514.66;;;25.64;36.24
10712;BME280;5407;51.234;6.804;2022-09-01T02:41:40;101513.16;;;25.59;36.36
10712;BME280;5407;51.234;6.804;2022-09-01T02:44:07;101513.09;;;25.63;36.16
10712;BME280;5407;51.234;6.804;2022-09-01T02:46:40;101503.19;;;25.65;36.33
10712;BME280;5407;51.234;6.804;2022-09-01T02:49:08;101513.88;;;25.63;36.44
10712;BME280;5407;51.234;6.804;2022-09-01T02:51:40;101510.69;;;25.65;36.30
10712;BME280;5407;51.234;6.804;2022-09-01T02:54:07;101504.44;;;25.61;36.38
10712;BME280;5407;51.234;6.804;2022-09-01T02:56:35;101513.16;;;25.59;36.36
10712;BME280;5407;51.234;6.804;2022-09-01T02:59:03;101511.78;;;25.48;36.45
10712;BME280;5407;51.234;6.804;2022-09-01T03:01:35;101507.84;;;25.49;36.51
10712;BME280;5407;51.234;6.804;2022-09-01T03:04:05;101508.19;;;25.51;36.45
10712;BME280;5407;51.234;6.804;2022-09-01T03:06:32;101507.84;;;25.49;36.33
10712;BME280;5407;51.234;6.804;2022-09-01T03:09:03;101511.78;;;25.48;36.54
10712;BME280;5407;51.234;6.804;2022-09-01T03:11:32;101507.13;;;25.45;36.31
10712;BME280;5407;51.234;6.804;2022-09-01T03:14:00;101505.56;;;25.44;36.63
10712;BME280;5407;51.234;6.804;2022-09-01T03:16:27;101508.31;;;25.44;36.61
10712;BME280;5407;51.234;6.804;2022-09-01T03:18:56;101512.28;;;25.43;36.71
10712;BME280;5407;51.234;6.804;2022-09-01T03:21:25;101509.09;;;25.44;36.59
10712;BME280;5407;51.234;6.804;2022-09-01T03:23:52;101511.44;;;25.46;36.62
10712;BME280;5407;51.234;6.804;2022-09-01T03:26:20;101515.75;;;25.47;36.37
10712;BME280;5407;51.234;6.804;2022-09-01T03:28:48;101515.94;;;25.36;36.58
10712;BME280;5407;51.234;6.804;2022-09-01T03:31:16;101519.16;;;25.35;36.85
10712;BME280;5407;51.234;6.804;2022-09-01T03:33:45;101509.69;;;25.33;36.94
10712;BME280;5407;51.234;6.804;2022-09-01T03:36:20;101507.72;;;25.33;36.75
10712;BME280;5407;51.234;6.804;2022-09-01T03:38:49;101504.97;;;25.33;37.20
10712;BME280;5407;51.234;6.804;2022-09-01T03:41:20;101507.44;;;25.28;37.15
10712;BME280;5407;51.234;6.804;2022-09-01T03:43:49;101505.81;;;25.30;36.96
10712;BME280;5407;51.234;6.804;2022-09-01T03:46:20;101513.00;;;25.24;37.18
10712;BME280;5407;51.234;6.804;2022-09-01T03:48:52;101509.94;;;25.19;37.17
10712;BME280;5407;51.234;6.804;2022-09-01T03:51:21;101504.44;;;25.15;37.46
10712;BME280;5407;51.234;6.804;2022-09-01T03:53:51;101505.28;;;25.12;37.29
10712;BME280;5407;51.234;6.804;2022-09-01T03:56:20;101504.56;;;25.08;37.26
10712;BME280;5407;51.234;6.804;2022-09-01T03:58:49;101499.03;;;25.08;37.45
10712;BME280;5407;51.234;6.804;2022-09-01T04:01:17;101499.53;;;25.03;37.49
10712;BME280;5407;51.234;6.804;2022-09-01T04:03:44;101493.66;;;25.01;37.50
10712;BME280;5407;51.234;6.804;2022-09-01T04:06:15;101490.53;;;24.99;37.49
10712;BME280;5407;51.234;6.804;2022-09-01T04:08:50;101496.16;;;24.92;37.89
10712;BME280;5407;51.234;6.804;2022-09-01T04:11:21;101500.13;;;24.91;37.80
10712;BME280;5407;51.234;6.804;2022-09-01T04:13:50;101497.84;;;24.86;37.67
10712;BME280;5407;51.234;6.804;2022-09-01T04:16:20;101503.00;;;24.84;37.78
10712;BME280;5407;51.234;6.804;2022-09-01T04:19:05;101496.69;;;24.84;37.83
10712;BME280;5407;51.234;6.804;2022-09-01T04:21:41;101501.84;;;24.82;37.64
10712;BME280;5407;51.234;6.804;2022-09-01T04:24:11;101495.53;;;24.81;37.78
10712;BME280;5407;51.234;6.804;2022-09-01T04:26:40;101502.69;;;24.79;37.76
10712;BME280;5407;51.234;6.804;2022-09-01T04:29:08;101504.25;;;24.80;37.95
10712;BME280;5407;51.234;6.804;2022-09-01T04:31:36;101498.75;;;24.76;37.90
10712;BME280;5407;51.234;6.804;2022-09-01T04:34:05;101503.44;;;24.79;37.90
10712;BME280;5407;51.234;6.804;2022-09-01T04:36:38;101499.13;;;24.78;37.98
10712;BME280;5407;51.234;6.804;2022-09-01T04:39:07;101494.81;;;24.77;38.02
10712;BME280;5407;51.234;6.804;2022-09-01T04:41:38;101496.47;;;24.71;38.06
10712;BME280;5407;51.234;6.804;2022-09-01T04:44:06;101499.34;;;24.64;38.01
10712;BME280;5407;51.234;6.804;2022-09-01T04:46:38;101496.00;;;24.50;38.52
10712;BME280;5407;51.234;6.804;2022-09-01T04:49:07;101500.22;;;24.28;38.78
10712;BME280;5407;51.234;6.804;2022-09-01T04:51:38;101502.56;;;24.29;38.79
10712;BME280;5407;51.234;6.804;2022-09-01T04:54:05;101497.78;;;24.33;38.65
10712;BME280;5407;51.234;6.804;2022-09-01T04:56:40;101500.25;;;24.24;38.81
10712;BME280;5407;51.234;6.804;2022-09-01T04:59:12;101492.72;;;24.28;38.76
10712;BME280;5407;51.234;6.804;2022-09-01T05:01:41;101498.13;;;24.35;38.61
10712;BME280;5407;51.234;6.804;2022-09-01T05:04:15;101500.47;;;24.40;38.47
10712;BME280;5407;51.234;6.804;2022-09-01T05:06:44;101497.22;;;24.45;38.45
10712;BME280;5407;51.234;6.804;2022-09-01T05:09:12;101500.34;;;24.47;38.55
10712;BME280;5407;51.234;6.804;2022-09-01T05:12:09;101496.81;;;24.47;38.45
10712;BME280;5407;51.234;6.804;2022-09-01T05:14:43;101497.16;;;24.49;38.32
10712;BME280;5407;51.234;6.804;2022-09-01T05:17:14;101502.31;;;24.50;38.36
10712;BME280;5407;51.234;6.804;2022-09-01T05:19:44;101498.34;;;24.51;38.32
10712;BME280;5407;51.234;6.804;2022-09-01T05:22:14;101500.28;;;24.54;38.22
10712;BME280;5407;51.234;6.804;2022-09-01T05:24:57;101495.13;;;24.56;38.02
10712;BME280;5407;51.234;6.804;2022-09-01T05:27:30;101501.38;;;24.60;38.13
10712;BME280;5407;51.234;6.804;2022-09-01T05:29:56;101507.69;;;24.61;38.04
10712;BME280;5407;51.234;6.804;2022-09-01T05:32:25;101508.47;;;24.61;37.97
10712;BME280;5407;51.234;6.804;2022-09-01T05:34:53;101510.81;;;24.63;37.90
10712;BME280;5407;51.234;6.804;2022-09-01T05:37:21;101513.97;;;24.61;37.98
10712;BME280;5407;51.234;6.804;2022-09-01T05:39:48;101510.97;;;24.52;38.07
10712;BME280;5407;51.234;6.804;2022-09-01T05:42:16;101505.81;;;24.54;38.10
10712;BME280;5407;51.234;6.804;2022-09-01T05:44:45;101507.03;;;24.50;38.29
10712;BME280;5407;51.234;6.804;2022-09-01T05:47:14;101503.94;;;24.44;38.17
10712;BME280;5407;51.234;6.804;2022-09-01T05:49:41;101515.72;;;24.48;37.99
10712;BME280;5407;51.234;6.804;2022-09-01T05:52:09;101513.34;;;24.50;37.85
10712;BME280;5407;51.234;6.804;2022-09-01T05:54:37;101518.81;;;24.54;38.02
10712;BME280;5407;51.234;6.804;2022-09-01T05:57:06;101517.19;;;24.56;37.90
10712;BME280;5407;51.234;6.804;2022-09-01T05:59:33;101517.19;;;24.56;37.81
10712;BME280;5407;51.234;6.804;2022-09-01T06:02:08;101519.13;;;24.59;37.75
10712;BME280;5407;51.234;6.804;2022-09-01T06:04:37;101523.09;;;24.58;37.94
10712;BME280;5407;51.234;6.804;2022-09-01T06:07:17;101521.06;;;24.62;37.74
10712;BME280;5407;51.234;6.804;2022-09-01T06:09:49;101519.84;;;24.63;37.74
10712;BME280;5407;51.234;6.804;2022-09-01T06:12:20;101517.47;;;24.65;37.70
10712;BME280;5407;51.234;6.804;2022-09-01T06:14:52;101515.78;;;24.71;37.71
10712;BME280;5407;51.234;6.804;2022-09-01T06:17:22;101522.50;;;24.70;37.69
10712;BME280;5407;51.234;6.804;2022-09-01T06:19:50;101523.31;;;24.71;37.62
10712;BME280;5407;51.234;6.804;2022-09-01T06:22:18;101527.66;;;24.68;38.14
10712;BME280;5407;51.234;6.804;2022-09-01T06:24:46;101520.59;;;24.67;38.34
10712;BME280;5407;51.234;6.804;2022-09-01T06:27:14;101520.59;;;24.67;38.28
10712;BME280;5407;51.234;6.804;2022-09-01T06:29:43;101526.47;;;24.69;38.49
10712;BME280;5407;51.234;6.804;2022-09-01T06:32:12;101526.84;;;24.71;38.38
10712;BME280;5407;51.234;6.804;2022-09-01T06:34:42;101528.75;;;24.74;38.38
10712;BME280;5407;51.234;6.804;2022-09-01T06:37:16;101528.34;;;24.76;38.34
10712;BME280;5407;51.234;6.804;2022-09-01T06:39:48;101527.88;;;24.81;38.45
10712;BME280;5407;51.234;6.804;2022-09-01T06:42:16;101530.25;;;24.82;38.41
10712;BME280;5407;51.234;6.804;2022-09-01T06:44:55;101526.28;;;24.83;38.28
10712;BME280;5407;51.234;6.804;2022-09-01T06:47:22;101525.44;;;24.86;38.19
10712;BME280;5407;51.234;6.804;2022-09-01T06:49:50;101533.28;;;24.88;38.12
10712;BME280;5407;51.234;6.804;2022-09-01T06:52:19;101534.44;;;24.90;38.24
10712;BME280;5407;51.234;6.804;2022-09-01T06:54:49;101534.00;;;24.92;38.33
10712;BME280;5407;51.234;6.804;2022-09-01T06:57:18;101530.84;;;24.93;38.27
10712;BME280;5407;51.234;6.804;2022-09-01T06:59:46;101537.09;;;24.97;38.03
10712;BME280;5407;51.234;6.804;2022-09-01T07:02:15;101530.38;;;24.98;38.18
10712;BME280;5407;51.234;6.804;2022-09-01T07:05:07;101534.69;;;24.99;38.27
10712;BME280;5407;51.234;6.804;2022-09-01T07:07:34;101535.47;;;25.00;38.14
10712;BME280;5407;51.234;6.804;2022-09-01T07:10:28;101537.03;;;25.01;37.99
10712;BME280;5407;51.234;6.804;2022-09-01T07:13:12;101538.19;;;25.03;38.19
10712;BME280;5407;51.234;6.804;2022-09-01T07:15:45;101534.56;;;25.06;37.91
10712;BME280;5407;51.234;6.804;2022-09-01T07:18:15;101540.91;;;25.07;37.92
10712;BME280;5407;51.234;6.804;2022-09-01T07:20:44;101539.25;;;25.09;38.14
10712;BME280;5407;51.234;6.804;2022-09-01T07:23:14;101534.53;;;25.10;38.05
10712;BME280;5407;51.234;6.804;2022-09-01T07:25:43;101543.94;;;25.12;38.13
10712;BME280;5407;51.234;6.804;2022-09-01T07:28:21;101542.75;;;25.13;38.15
10712;BME280;5407;51.234;6.804;2022-09-01T07:30:51;101543.09;;;25.15;37.98
10712;BME280;5407;51.234;6.804;2022-09-01T07:33:20;101539.16;;;25.16;38.12
10712;BME280;5407;51.234;6.804;2022-09-01T07:35:52;101542.31;;;25.18;37.93
10712;BME280;5407;51.234;6.804;2022-09-01T07:38:21;101539.53;;;25.18;38.18
10712;BME280;5407;51.234;6.804;2022-09-01T07:40:49;101532.81;;;25.19;38.13
10712;BME280;5407;51.234;6.804;2022-09-01T07:43:37;101532.81;;;25.19;37.81
10712;BME280;5407;51.234;6.804;2022-09-01T07:46:22;101539.06;;;25.23;38.04
10712;BME280;5407;51.234;6.804;2022-09-01T07:48:52;101530.38;;;25.25;37.67
10712;BME280;5407;51.234;6.804;2022-09-01T07:51:23;101541.41;;;25.25;37.98
10712;BME280;5407;51.234;6.804;2022-09-01T07:53:51;101531.13;;;25.25;37.85
10712;BME280;5407;51.234;6.804;2022-09-01T07:56:20;101532.69;;;25.26;37.73
10712;BME280;5407;51.234;6.804;2022-09-01T07:58:50;101542.13;;;25.29;37.64
10712;BME280;5407;51.234;6.804;2022-09-01T08:01:20;101541.72;;;25.30;37.92
10712;BME280;5407;51.234;6.804;2022-09-01T08:03:50;101546.81;;;25.32;37.74
10712;BME280;5407;51.234;6.804;2022-09-01T08:06:23;101545.63;;;25.33;37.80
10712;BME280;5407;51.234;6.804;2022-09-01T08:08:52;101543.66;;;25.33;37.55
10712;BME280;5407;51.234;6.804;2022-09-01T08:11:22;101546.75;;;25.35;37.53
10712;BME280;5407;51.234;6.804;2022-09-01T08:13:52;101544.38;;;25.37;37.36
10712;BME280;5407;51.234;6.804;2022-09-01T08:16:20;101547.13;;;25.37;37.52
10712;BME280;5407;51.234;6.804;2022-09-01T08:18:49;101542.72;;;25.39;37.44
10712;BME280;5407;51.234;6.804;2022-09-01T08:21:27;101544.72;;;25.39;37.33
10712;BME280;5407;51.234;6.804;2022-09-01T08:24:00;101548.56;;;25.45;37.54
10712;BME280;5407;51.234;6.804;2022-09-01T08:26:28;101542.69;;;25.43;37.79
10712;BME280;5407;51.234;6.804;2022-09-01T08:28:55;101539.91;;;25.43;38.22
10712;BME280;5407;51.234;6.804;2022-09-01T08:31:33;101537.16;;;25.43;38.13
10712;BME280;5407;51.234;6.804;2022-09-01T08:34:01;101539.47;;;25.44;37.96
10712;BME280;5407;51.234;6.804;2022-09-01T08:36:31;101537.88;;;25.47;38.03
10712;BME280;5407;51.234;6.804;2022-09-01T08:38:59;101528.38;;;25.48;37.90
10712;BME280;5407;51.234;6.804;2022-09-01T08:41:38;101537.78;;;25.50;37.57
10712;BME280;5407;51.234;6.804;2022-09-01T08:44:15;101534.63;;;25.52;37.56
10712;BME280;5407;51.234;6.804;2022-09-01T08:46:47;101534.63;;;25.52;37.48
10712;BME280;5407;51.234;6.804;2022-09-01T08:49:22;101539.28;;;25.55;37.58
10712;BME280;5407;51.234;6.804;2022-09-01T08:52:18;101541.66;;;25.56;37.57
10712;BME280;5407;51.234;6.804;2022-09-01T08:54:50;101542.41;;;25.57;37.53
10712;BME280;5407;51.234;6.804;2022-09-01T08:57:22;101534.50;;;25.59;37.25
10712;BME280;5407;51.234;6.804;2022-09-01T09:00:10;101530.53;;;25.60;37.18
10712;BME280;5407;51.234;6.804;2022-09-01T09:02:48;101523.38;;;25.62;37.06
10712;BME280;5407;51.234;6.804;2022-09-01T09:05:27;101522.94;;;25.64;36.87
10712;BME280;5407;51.234;6.804;2022-09-01T09:08:11;101527.25;;;25.65;36.64
10712;BME280;5407;51.234;6.804;2022-09-01T09:10:46;101523.28;;;25.66;36.61
10712;BME280;5407;51.234;6.804;2022-09-01T09:13:21;101525.66;;;25.67;36.56
10712;BME280;5407;51.234;6.804;2022-09-01T09:15:51;101515.38;;;25.68;36.57
10712;BME280;5407;51.234;6.804;2022-09-01T09:18:25;101527.22;;;25.68;35.90
10712;BME280;5407;51.234;6.804;2022-09-01T09:20:54;101520.03;;;25.71;36.27
10712;BME280;5407;51.234;6.804;2022-09-01T09:23:28;101523.16;;;25.73;36.44
10712;BME280;5407;51.234;6.804;2022-09-01T09:25:56;101517.63;;;25.73;35.77
10712;BME280;5407;51.234;6.804;2022-09-01T09:28:23;101509.34;;;25.73;35.85
10712;BME280;5407;51.234;6.804;2022-09-01T09:30:50;101506.56;;;25.73;35.70
10712;BME280;5407;51.234;6.804;2022-09-01T09:33:33;101512.03;;;25.76;35.67
10712;BME280;5407;51.234;6.804;2022-09-01T09:36:15;101496.25;;;25.77;35.67
10712;BME280;5407;51.234;6.804;2022-09-01T09:38:44;101497.81;;;25.78;35.81
10712;BME280;5407;51.234;6.804;2022-09-01T09:41:15;101502.91;;;25.79;35.70
10712;BME280;5407;51.234;6.804;2022-09-01T09:43:46;101498.53;;;25.82;35.72
10712;BME280;5407;51.234;6.804;2022-09-01T09:46:25;101492.16;;;25.85;35.46
10712;BME280;5407;51.234;6.804;2022-09-01T09:49:08;101501.69;;;25.84;35.68
10712;BME280;5407;51.234;6.804;2022-09-01T09:51:36;101495.28;;;25.87;35.72
10712;BME280;5407;51.234;6.804;2022-09-01T09:54:13;101489.41;;;25.85;35.76
10712;BME280;5407;51.234;6.804;2022-09-01T09:56:41;101490.97;;;25.86;35.48
10712;BME280;5407;51.234;6.804;2022-09-01T09:59:20;101487.00;;;25.87;35.49
10712;BME280;5407;51.234;6.804;2022-09-01T10:01:48;101480.25;;;25.88;35.59
10712;BME280;5407;51.234;6.804;2022-09-01T10:04:41;101479.81;;;25.89;35.30
10712;BME280;5407;51.234;6.804;2022-09-01T10:07:23;101479.41;;;25.91;35.52
10712;BME280;5407;51.234;6.804;2022-09-01T10:09:53;101475.44;;;25.92;35.34
10712;BME280;5407;51.234;6.804;2022-09-01T10:12:22;101467.13;;;25.92;35.34
10712;BME280;5407;51.234;6.804;2022-09-01T10:14:52;101467.50;;;25.94;35.22
10712;BME280;5407;51.234;6.804;2022-09-01T10:17:23;101466.69;;;25.93;35.15
10712;BME280;5407;51.234;6.804;2022-09-01T10:19:55;101467.13;;;25.92;35.26
10712;BME280;5407;51.234;6.804;2022-09-01T10:22:23;101471.47;;;25.93;35.33
10712;BME280;5407;51.234;6.804;2022-09-01T10:24:52;101454.09;;;25.92;35.17
10712;BME280;5407;51.234;6.804;2022-09-01T10:27:22;101455.63;;;25.93;35.25
10712;BME280;5407;51.234;6.804;2022-09-01T10:29:54;101452.13;;;25.93;35.24
10712;BME280;5407;51.234;6.804;2022-09-01T10:32:26;101460.41;;;25.93;35.42
10712;BME280;5407;51.234;6.804;2022-09-01T10:34:55;101449.34;;;25.93;35.35
10712;BME280;5407;51.234;6.804;2022-09-01T10:37:22;101458.00;;;25.95;35.11
10712;BME280;5407;51.234;6.804;2022-09-01T10:40:16;101440.19;;;25.96;34.90
10712;BME280;5407;51.234;6.804;2022-09-01T10:42:45;101444.09;;;25.98;34.84
10712;BME280;5407;51.234;6.804;2022-09-01T10:45:18;101440.13;;;25.99;35.18
10712;BME280;5407;51.234;6.804;2022-09-01T10:47:46;101440.91;;;26.00;35.16
10712;BME280;5407;51.234;6.804;2022-09-01T10:50:26;101439.34;;;25.99;34.85
10712;BME280;5407;51.234;6.804;2022-09-01T10:52:55;101447.41;;;26.09;35.10
10712;BME280;5407;51.234;6.804;2022-09-01T11:01:16;101429.63;;;26.10;35.00
10712;BME280;5407;51.234;6.804;2022-09-01T11:03:53;101435.41;;;26.16;34.16
10712;BME280;5407;51.234;6.804;2022-09-01T11:06:44;101423.63;;;26.12;34.50
10712;BME280;5407;51.234;6.804;2022-09-01T11:09:21;101431.53;;;26.13;34.79
10712;BME280;5407;51.234;6.804;2022-09-01T11:12:01;101435.41;;;26.16;34.92
10712;BME280;5407;51.234;6.804;2022-09-01T11:14:46;101425.91;;;26.17;34.82
10712;BME280;5407;51.234;6.804;2022-09-01T11:17:17;101422.72;;;26.18;34.79
10712;BME280;5407;51.234;6.804;2022-09-01T11:19:46;101425.03;;;26.20;34.92
10712;BME280;5407;51.234;6.804;2022-09-01T11:22:24;101428.19;;;26.22;34.79
10712;BME280;5407;51.234;6.804;2022-09-01T11:28:09;101420.22;;;26.24;34.82
10712;BME280;5407;51.234;6.804;2022-09-01T11:30:42;101417.03;;;26.25;34.98
10712;BME280;5407;51.234;6.804;2022-09-01T11:33:26;101408.31;;;26.27;35.09
10712;BME280;5407;51.234;6.804;2022-09-01T11:36:00;101422.47;;;26.29;35.03
10712;BME280;5407;51.234;6.804;2022-09-01T11:38:31;101411.75;;;26.31;34.95
10712;BME280;5407;51.234;6.804;2022-09-01T11:40:59;101415.63;;;26.33;35.18
10712;BME280;5407;51.234;6.804;2022-09-01T11:43:29;101412.47;;;26.35;35.04
10712;BME280;5407;51.234;6.804;2022-09-01T11:46:04;101417.53;;;26.36;35.11
10712;BME280;5407;51.234;6.804;2022-09-01T11:48:35;101415.91;;;26.39;35.31
10712;BME280;5407;51.234;6.804;2022-09-01T11:51:02;101410.72;;;26.41;35.23
10712;BME280;5407;51.234;6.804;2022-09-01T11:53:30;101413.06;;;26.42;35.02
10712;BME280;5407;51.234;6.804;2022-09-01T11:56:12;101420.78;;;26.67;34.72
10712;BME280;5407;51.234;6.804;2022-09-01T11:58:41;101404.38;;;26.76;34.41
10712;BME280;5407;51.234;6.804;2022-09-01T12:01:15;101402.38;;;26.76;34.29
10712;BME280;5407;51.234;6.804;2022-09-01T12:03:42;101408.59;;;26.80;34.51
10712;BME280;5407;51.234;6.804;2022-09-01T12:06:12;101404.19;;;26.83;34.37
10712;BME280;5407;51.234;6.804;2022-09-01T12:08:51;101399.00;;;26.85;34.55
10712;BME280;5407;51.234;6.804;2022-09-01T12:11:21;101401.31;;;26.86;34.50
10712;BME280;5407;51.234;6.804;2022-09-01T12:13:58;101403.66;;;26.88;34.55
10712;BME280;5407;51.234;6.804;2022-09-01T12:16:26;101388.94;;;26.90;34.57
10712;BME280;5407;51.234;6.804;2022-09-01T12:18:56;101386.19;;;26.90;34.69
10712;BME280;5407;51.234;6.804;2022-09-01T12:21:26;101386.53;;;26.92;34.53
10712;BME280;5407;51.234;6.804;2022-09-01T12:24:08;101390.84;;;26.93;34.52
10712;BME280;5407;51.234;6.804;2022-09-01T12:26:35;101391.63;;;26.94;34.64
10712;BME280;5407;51.234;6.804;2022-09-01T12:29:05;101386.88;;;26.94;34.54
10712;BME280;5407;51.234;6.804;2022-09-01T12:31:33;101390.78;;;26.97;34.65
10712;BME280;5407;51.234;6.804;2022-09-01T12:34:00;101380.44;;;26.97;34.70
10712;BME280;5407;51.234;6.804;2022-09-01T12:36:31;101377.25;;;26.99;34.65
10712;BME280;5407;51.234;6.804;2022-09-01T12:39:20;101375.59;;;27.01;34.66
10712;BME280;5407;51.234;6.804;2022-09-01T12:42:01;101376.38;;;27.02;34.51
10712;BME280;5407;51.234;6.804;2022-09-01T12:44:31;101384.25;;;27.03;34.62
10712;BME280;5407;51.234;6.804;2022-09-01T12:47:01;101381.81;;;27.05;34.55
10712;BME280;5407;51.234;6.804;2022-09-01T12:49:38;101373.09;;;27.07;34.50
10712;BME280;5407;51.234;6.804;2022-09-01T12:52:13;101373.84;;;27.07;34.36
10712;BME280;5407;51.234;6.804;2022-09-01T12:54:41;101365.16;;;27.09;34.41
10712;BME280;5407;51.234;6.804;2022-09-01T12:57:25;101369.13;;;27.08;34.26
10712;BME280;5407;51.234;6.804;2022-09-01T13:00:08;101361.16;;;27.10;34.40
10712;BME280;5407;51.234;6.804;2022-09-01T13:02:42;101357.94;;;27.11;34.38
10712;BME280;5407;51.234;6.804;2022-09-01T13:05:26;101365.81;;;27.13;34.45
10712;BME280;5407;51.234;6.804;2022-09-01T13:07:56;101358.66;;;27.15;34.41
10712;BME280;5407;51.234;6.804;2022-09-01T13:10:26;101357.09;;;27.14;34.22
10712;BME280;5407;51.234;6.804;2022-09-01T13:12:54;101349.13;;;27.16;34.34
10712;BME280;5407;51.234;6.804;2022-09-01T13:15:24;101347.44;;;27.19;34.46
10712;BME280;5407;51.234;6.804;2022-09-01T13:17:52;101348.25;;;27.19;34.42
10712;BME280;5407;51.234;6.804;2022-09-01T13:20:19;101347.38;;;27.22;34.34
10712;BME280;5407;51.234;6.804;2022-09-01T13:22:46;101348.91;;;27.23;34.46
10712;BME280;5407;51.234;6.804;2022-09-01T13:25:15;101342.16;;;27.24;34.28
10712;BME280;5407;51.234;6.804;2022-09-01T13:27:43;101335.41;;;27.25;34.30
10712;BME280;5407;51.234;6.804;2022-09-01T13:30:13;101333.06;;;27.24;34.21
10712;BME280;5407;51.234;6.804;2022-09-01T13:32:43;101325.88;;;27.26;34.22